Taunton 2W

41° 53' 56"N, 71° 08' 19"W, Elevation 50 ft.
Eastern Time

Hourly observations for the last 72 hours

Date Time Temperature (°F) Humi-
dity

(%)
Wind
(mph)
Pressure Rain (in) Sun
(W/m2)
UV ET
(in)
Air Dew 6 Hour 1 Hr 3 Hr 6 Hr Day
Alt
(in)
Sea
Level

(mb)
Max Min
26 06:00 55.1 54.3 97 NW 1 G 3 29.95 1014.3 0.00 23 0.0 0.000
26 05:00 54.5 53.4 96 NW 0 G 1 29.92 1013.3 0.00 0 0.0 0.000
26 04:00 56.8 55.7 96 Calm 29.91 1012.9 0.00 0 0.0 0.000
26 03:00 57.4 56.3 96 NW 3 G 4 29.92 1013.2 0.00 0 0.0 0.000
26 02:00 57.6 56.2 67.4 57.5 95 Calm 29.92 1013.2 0.00 0 0.0 0.000
26 01:00 59.0 57.6 95 NW 3 G 5 29.92 1013.3 0.00 0 0.0 0.000
26 00:00 61.3 59.3 93 NW 3 G 7 29.93 1013.4 0.07 0 0.0 0.206
25 23:00 63.6 60.9 91 NW 2 G 4 29.92 1013.2 0.07 0 0.0 0.205
25 22:00 63.8 60.5 89 S 3 G 8 29.90 1012.6 0.07 0 0.0 0.204
25 21:00 65.0 62.6 92 S 3 G 5 29.89 1012.2 0.07 0 0.0 0.204
25 20:00 67.4 65.3 83.4 66.0 93 NNW 1 G 2 29.90 1012.4 0.07 0.07 0.07 19 0.0 0.203
25 19:00 66.7 64.3 92 NW 3 G 4 29.89 1012.3 0.07 58 0.0 0.202
25 18:00 66.8 63.1 88 WNW 4 G 10 29.90 1012.6 0.07 0.07 53 0.0 0.199
25 17:00 76.0 59.2 56 S 6 G 10 29.85 1010.9 0.00 30 0.0 0.193
25 16:00 81.2 61.4 51 SE 9 G 17 29.86 1011.1 0.00 701 4.4 0.170
25 15:00 82.4 61.9 50 S 7 G 16 29.88 1011.8 0.00 810 6.5 0.144
25 14:00 81.8 57.8 83.0 71.0 44 SW 4 G 10 29.89 1012.2 0.00 1058 4.6 0.121
25 13:00 82.9 58.8 44 W 5 G 10 29.90 1012.7 0.00 974 9.1 0.094
25 12:00 80.4 56.5 44 WSW 4 G 9 29.92 1013.1 0.00 940 8.7 0.068
25 11:00 78.7 57.4 48 WNW 2 G 10 29.92 1013.4 0.00 882 7.3 0.045
25 10:00 76.4 57.5 52 W 7 G 12 29.93 1013.7 0.00 780 5.4 0.026
25 09:00 73.8 59.5 61 WSW 2 G 9 29.94 1013.9 0.00 629 3.3 0.012
25 08:00 71.0 61.5 71.0 56.6 72 W 1 G 5 29.93 1013.7 0.00 454 1.6 0.003
25 07:00 66.2 60.2 81 WSW 2 G 4 29.92 1013.3 0.00 251 0.5 0.000
25 06:00 57.0 55.6 95 Calm 29.90 1012.5 0.00 23 0.0 0.000
25 05:00 56.8 55.4 95 W 0 G 1 29.89 1012.1 0.00 0 0.0 0.000
25 04:00 58.7 56.7 93 W 0 G 1 29.86 1011.2 0.00 0 0.0 0.000
25 03:00 60.8 58.5 92 W 0 G 3 29.86 1011.1 0.00 0 0.0 0.000
25 02:00 59.9 58.2 76.9 59.3 94 Calm 29.86 1011.3 0.00 0 0.0 0.000
25 01:00 60.4 58.4 93 W 0 G 2 29.85 1010.7 0.00 0 0.0 0.000
25 00:00 59.9 57.6 92 Calm 29.85 1010.7 0.54 0 0.0 0.159
24 23:00 61.8 58.5 89 Calm 29.83 1010.1 0.54 0 0.0 0.159
24 22:00 65.2 60.9 86 W 0 G 2 29.81 1009.4 0.54 0 0.0 0.158
24 21:00 68.1 62.7 83 WSW 1 G 3 29.77 1008.1 0.54 0 0.0 0.157
24 20:00 76.9 61.5 86.1 76.9 59 WSW 2 G 9 29.73 1006.9 0.54 14 0.0 0.154
24 19:00 81.2 62.5 53 W 6 G 11 29.71 1006.0 0.54 171 0.0 0.146
24 18:00 83.4 63.4 51 WNW 6 G 12 29.67 1004.9 0.54 345 1.1 0.131
24 17:00 85.1 61.4 45 WNW 4 G 15 29.65 1004.2 0.54 531 2.7 0.110
24 16:00 85.5 61.1 44 WNW 14 G 21 29.62 1003.1 0.54 687 4.7 0.085
24 15:00 84.4 68.0 58 WNW 12 G 19 29.60 1002.3 0.54 816 6.9 0.060
24 14:00 81.9 72.0 82.5 71.0 72 NW 9 G 15 29.58 1001.9 0.01 0.54 0.54 888 8.7 0.039
24 13:00 77.4 73.9 89 WSW 3 G 6 29.56 1001.0 0.01 0.54 378 4.2 0.026
24 12:00 76.7 74.2 92 W 2 G 7 29.56 1001.1 0.53 1257 5.5 0.013
24 11:00 71.2 70.3 97 S 3 G 6 29.56 1000.9 0.27 0.53 0.53 155 1.8 0.012
24 10:00 71.2 70.0 96 S 1 G 5 29.54 1000.5 0.19 0.26 18 0.0 0.011
24 09:00 71.3 69.5 94 S 5 G 9 29.56 1001.2 0.07 0.07 69 0.6 0.009
24 08:00 72.4 69.3 73.3 70.5 90 SW 8 G 14 29.55 1000.6 0.00 81 0.5 0.005
24 07:00 71.7 69.3 92 S 8 G 14 29.55 1000.7 0.00 83 0.0 0.002
24 06:00 70.7 68.9 94 S 8 G 12 29.55 1000.7 0.00 30 0.0 0.001
24 05:00 70.6 68.8 94 SSW 5 G 12 29.54 1000.3 0.00 0 0.0 0.001
24 04:00 71.1 69.6 95 S 6 G 13 29.54 1000.4 0.00 0 0.0 0.001
24 03:00 70.6 69.1 95 S 5 G 9 29.55 1000.7 0.00 0 0.0 0.001
24 02:00 70.8 69.0 71.9 70.7 94 SSE 5 G 10 29.58 1001.6 0.00 0 0.0 0.001
24 01:00 70.8 69.0 94 S 7 G 13 29.59 1002.0 0.00 0 0.0 0.000
24 00:00 71.4 69.0 92 S 6 G 11 29.61 1002.7 0.00 0 0.0 0.180
23 23:00 71.6 69.2 92 S 5 G 14 29.62 1003.2 0.00 0 0.0 0.179
23 22:00 71.3 68.9 92 S 7 G 14 29.64 1003.6 0.00 0 0.0 0.178
23 21:00 71.4 68.3 90 S 4 G 14 29.63 1003.4 0.00 0 0.0 0.177
23 20:00 71.8 68.1 84.7 71.7 88 S 3 G 15 29.62 1003.1 0.00 12 0.0 0.175
23 19:00 72.7 68.6 87 S 3 G 17 29.63 1003.4 0.00 33 0.0 0.172
23 18:00 75.4 69.5 82 S 11 G 18 29.63 1003.5 0.00 77 0.0 0.163
23 17:00 78.9 71.5 78 S 9 G 18 29.64 1003.7 0.00 338 2.7 0.147
23 16:00 81.7 71.4 71 S 11 G 20 29.66 1004.5 0.00 483 5.1 0.126
23 15:00 81.7 71.4 71 S 15 G 22 29.68 1005.2 0.00 580 5.4 0.104
23 14:00 84.1 73.3 86.0 70.2 70 S 8 G 19 29.70 1005.8 0.00 1090 9.6 0.082
23 13:00 84.1 73.3 70 S 12 G 25 29.73 1006.7 0.00 654 7.1 0.059
23 12:00 85.9 74.6 69 S 5 G 16 29.74 1007.2 0.00 1002 8.3 0.034
23 11:00 82.1 74.6 78 SSE 4 G 11 29.76 1007.9 0.00 872 7.7 0.019
23 10:00 77.1 71.9 84 S 5 G 8 29.78 1008.6 0.00 485 4.2 0.010
23 09:00 71.6 68.8 91 SW 3 G 8 29.80 1009.3 0.00 128 1.0 0.007
23 08:00 70.5 68.4 70.5 62.7 93 SSE 4 G 8 29.81 1009.3 0.00 120 0.6 0.004
23 07:00 69.4 67.6 94 SSE 3 G 6 29.80 1009.2 0.00 160 0.0 0.002

Data generated by WxSolution Version 1.9.0.7, Build 2017.01.18.